Coastal Carolina Regional Airport
KEWN : now visible

Airfield :











YOU CAN JOIN US ON...

 
LOGIN :

Register | Disclaimer

   EN    FR    IT 

 









Legend :    VFR   Marginal VFR   IFR   Intensive IFR   Very Intensive IFR
Visi :
Ceiling :
>= 8 km
>= 3000ft
5 to 8 km
1000 to 3000 ft
1500m to 5 km
500 to 1000 ft
800 to 1500m
200 to 500 ft
< 800m
< 200 ft
Symbols :   Thunderstorms  Fog  Heavy snow  Heavy precipitations  Wind > 20 kt






- Airport Elevation : 18 ft
- IATA code : EWN


KEWN - Coastal Carolina Regional

CURRENT METAR :
  • 260614Z AUTO 29011G15KT 1 1/2SM +RA BR FEW009 BKN029 OVC042 17/16 A2969 RMK AO2 P0022 T01670161

EXPIRED METARs :
  • 260605Z AUTO 30007G17KT 2SM +RA BR FEW009 BKN030 OVC043 17/16 A2968 RMK AO2 VIS 1 1/4V4 LTG DSNT NW P0008 T01670156
  • 260601Z AUTO 30008G17KT 1 3/4SM +RA BR FEW012 BKN030 OVC035 17/16 A2968 RMK AO2 LTG DSNT NW P0007 T01670156
  • 260546Z AUTO 35020G35KT 2 1/2SM +RA BKN015 BKN026 OVC060 18/16 A2967 RMK AO2 PK WND 33035/0538 WSHFT 0529 LTG DSNT NW RAB36 P0008 T01830156
  • 260533Z AUTO 34015G18KT 10SM FEW005 BKN015 OVC060 19/18 A2968 RMK AO2 LTG DSNT NW T01940178
  • 260454Z AUTO 19005KT 10SM BKN065 OVC090 21/20 A2966 RMK AO2 LTG DSNT W PRESFR SLP043 T02060200 402330172
  • 260354Z AUTO 20004KT 10SM BKN080 19/19 A2969 RMK AO2 SLP053 T01890189

TAF KEWN
Valid from the 26 at 06:00 until the 27 at 06:00 UTC


260542Z 2606/2706 20005KT P6SM VCSH SCT007 BKN070
TEMPO 2606/2608 P6SM -RA BKN008
FM260800 27007KT P6SM SCT007 SCT030
FM261100 30012G23KT P6SM SCT040
FM270000 30010KT P6SM FEW250 WS020/30040KT
KZDC FIR / North America



MET'MAP, your aeronautical weather chart ! - Copyright ORBIFLY December 2007 - Disclaimer

ORBIFLY MET'MAP TEAM :

Programming & Development : Alexandra Zaïnal
Concept & original design : Baudouin d'Aumeries
Assistance for programming : Marc-Olivier Méhu
Technical & hardware support : Manuel Goepfert

Contact : metmap@orbifly.com




SOURCES & CREDITS :

   NOAA       Earth
Advisory